sensor_id;sensor_type;location;lat;lon;timestamp;pressure;altitude;pressure_sealevel;temperature;humidity
64614;BME280;51025;37.772;-122.432;2023-09-12T00:02:16;100875.99;;;22.91;32.56
64614;BME280;51025;37.772;-122.432;2023-09-12T00:04:45;100871.38;;;22.62;32.88
64614;BME280;51025;37.772;-122.432;2023-09-12T00:07:14;100875.88;;;22.61;32.82
64614;BME280;51025;37.772;-122.432;2023-09-12T00:09:42;100868.95;;;22.36;32.73
64614;BME280;51025;37.772;-122.432;2023-09-12T00:12:12;100867.38;;;23.12;32.35
64614;BME280;51025;37.772;-122.432;2023-09-12T00:14:41;100868.39;;;23.33;32.49
64614;BME280;51025;37.772;-122.432;2023-09-12T00:17:10;100867.92;;;22.77;32.58
64614;BME280;51025;37.772;-122.432;2023-09-12T00:19:38;100864.28;;;22.72;32.60
64614;BME280;51025;37.772;-122.432;2023-09-12T00:22:11;100866.18;;;22.34;32.67
64614;BME280;51025;37.772;-122.432;2023-09-12T00:24:39;100866.60;;;22.45;32.93
64614;BME280;51025;37.772;-122.432;2023-09-12T00:27:07;100873.16;;;22.57;32.76
64614;BME280;51025;37.772;-122.432;2023-09-12T00:29:35;100879.77;;;23.21;32.55
64614;BME280;51025;37.772;-122.432;2023-09-12T00:32:04;100886.92;;;22.27;32.71
64614;BME280;51025;37.772;-122.432;2023-09-12T00:34:32;100888.10;;;21.97;33.00
64614;BME280;51025;37.772;-122.432;2023-09-12T00:37:00;100895.76;;;22.32;32.63
64614;BME280;51025;37.772;-122.432;2023-09-12T00:39:28;100893.45;;;22.69;32.61
64614;BME280;51025;37.772;-122.432;2023-09-12T00:41:56;100895.10;;;22.83;32.82
64614;BME280;51025;37.772;-122.432;2023-09-12T00:44:24;100896.53;;;22.76;32.93
64614;BME280;51025;37.772;-122.432;2023-09-12T00:46:53;100893.60;;;21.87;33.01
64614;BME280;51025;37.772;-122.432;2023-09-12T00:49:22;100885.65;;;21.80;33.10
64614;BME280;51025;37.772;-122.432;2023-09-12T00:51:50;100886.20;;;22.60;32.29
64614;BME280;51025;37.772;-122.432;2023-09-12T00:54:18;100882.32;;;22.83;32.38
64614;BME280;51025;37.772;-122.432;2023-09-12T00:56:48;100885.04;;;23.39;32.18
64614;BME280;51025;37.772;-122.432;2023-09-12T00:59:17;100876.95;;;22.89;32.69
64614;BME280;51025;37.772;-122.432;2023-09-12T01:01:47;100871.39;;;22.08;32.72
64614;BME280;51025;37.772;-122.432;2023-09-12T01:04:16;100867.62;;;22.22;32.89
64614;BME280;51025;37.772;-122.432;2023-09-12T01:06:44;100865.16;;;22.74;32.81
64614;BME280;51025;37.772;-122.432;2023-09-12T01:09:13;100859.69;;;22.52;32.99
64614;BME280;51025;37.772;-122.432;2023-09-12T01:11:42;100860.83;;;21.91;33.18
64614;BME280;51025;37.772;-122.432;2023-09-12T01:14:11;100858.16;;;22.32;32.78
64614;BME280;51025;37.772;-122.432;2023-09-12T01:16:39;100856.41;;;22.48;32.56
64614;BME280;51025;37.772;-122.432;2023-09-12T01:19:07;100858.97;;;22.20;32.81
64614;BME280;51025;37.772;-122.432;2023-09-12T01:22:55;100854.52;;;22.55;32.46
64614;BME280;51025;37.772;-122.432;2023-09-12T01:25:50;100852.38;;;21.65;33.01
64614;BME280;51025;37.772;-122.432;2023-09-12T01:28:29;100857.74;;;22.18;32.84
64614;BME280;51025;37.772;-122.432;2023-09-12T01:30:59;100852.70;;;21.96;33.13
64614;BME280;51025;37.772;-122.432;2023-09-12T01:33:28;100849.12;;;22.39;33.22
64614;BME280;51025;37.772;-122.432;2023-09-12T01:35:57;100847.89;;;22.23;33.00
64614;BME280;51025;37.772;-122.432;2023-09-12T01:38:25;100857.24;;;22.88;32.41
64614;BME280;51025;37.772;-122.432;2023-09-12T01:40:55;100853.24;;;21.86;33.03
64614;BME280;51025;37.772;-122.432;2023-09-12T01:43:26;100856.73;;;21.72;33.39
64614;BME280;51025;37.772;-122.432;2023-09-12T01:46:02;100862.10;;;21.97;33.20
64614;BME280;51025;37.772;-122.432;2023-09-12T01:48:34;100862.27;;;22.90;33.23
64614;BME280;51025;37.772;-122.432;2023-09-12T01:51:13;100855.49;;;22.11;33.29
64614;BME280;51025;37.772;-122.432;2023-09-12T01:53:43;100854.59;;;22.03;33.92
64614;BME280;51025;37.772;-122.432;2023-09-12T01:56:14;100853.55;;;22.63;33.88
64614;BME280;51025;37.772;-122.432;2023-09-12T01:58:43;100852.77;;;22.64;33.65
64614;BME280;51025;37.772;-122.432;2023-09-12T02:01:12;100848.72;;;22.34;33.54
64614;BME280;51025;37.772;-122.432;2023-09-12T02:03:40;100846.62;;;23.01;33.85
64614;BME280;51025;37.772;-122.432;2023-09-12T02:06:08;100844.58;;;23.13;33.73
64614;BME280;51025;37.772;-122.432;2023-09-12T02:08:36;100848.38;;;22.98;33.51
64614;BME280;51025;37.772;-122.432;2023-09-12T02:11:04;100843.82;;;23.16;33.43
64614;BME280;51025;37.772;-122.432;2023-09-12T02:13:32;100846.22;;;22.50;33.87
64614;BME280;51025;37.772;-122.432;2023-09-12T02:16:00;100850.54;;;22.62;33.88
64614;BME280;51025;37.772;-122.432;2023-09-12T02:18:29;100847.21;;;22.86;34.12
64614;BME280;51025;37.772;-122.432;2023-09-12T02:20:58;100846.30;;;22.06;33.83
64614;BME280;51025;37.772;-122.432;2023-09-12T02:23:26;100849.13;;;21.82;33.98
64614;BME280;51025;37.772;-122.432;2023-09-12T02:25:55;100850.73;;;21.87;33.87
64614;BME280;51025;37.772;-122.432;2023-09-12T02:28:23;100851.95;;;22.35;33.63
64614;BME280;51025;37.772;-122.432;2023-09-12T02:30:51;100854.94;;;22.23;33.43
64614;BME280;51025;37.772;-122.432;2023-09-12T02:33:19;100850.48;;;22.21;33.41
64614;BME280;51025;37.772;-122.432;2023-09-12T02:35:48;100851.62;;;23.01;32.85
64614;BME280;51025;37.772;-122.432;2023-09-12T02:38:17;100852.21;;;22.64;33.13
64614;BME280;51025;37.772;-122.432;2023-09-12T02:40:45;100855.62;;;22.33;33.39
64614;BME280;51025;37.772;-122.432;2023-09-12T02:43:13;100854.05;;;22.56;33.07
64614;BME280;51025;37.772;-122.432;2023-09-12T02:45:41;100855.78;;;22.63;32.94
64614;BME280;51025;37.772;-122.432;2023-09-12T02:48:10;100850.73;;;22.53;33.02
64614;BME280;51025;37.772;-122.432;2023-09-12T02:50:40;100849.95;;;21.99;33.81
64614;BME280;51025;37.772;-122.432;2023-09-12T02:53:08;100854.69;;;22.47;33.07
64614;BME280;51025;37.772;-122.432;2023-09-12T02:55:41;100853.36;;;23.10;32.74
64614;BME280;51025;37.772;-122.432;2023-09-12T02:58:09;100856.44;;;23.08;32.75
64614;BME280;51025;37.772;-122.432;2023-09-12T03:00:39;100853.39;;;22.84;32.53
64614;BME280;51025;37.772;-122.432;2023-09-12T03:03:07;100856.26;;;22.84;32.50
64614;BME280;51025;37.772;-122.432;2023-09-12T03:05:36;100858.11;;;23.01;32.73
64614;BME280;51025;37.772;-122.432;2023-09-12T03:08:04;100861.55;;;22.64;32.73
64614;BME280;51025;37.772;-122.432;2023-09-12T03:10:33;100860.90;;;23.01;32.70
64614;BME280;51025;37.772;-122.432;2023-09-12T03:13:01;100863.81;;;23.08;32.60
64614;BME280;51025;37.772;-122.432;2023-09-12T03:15:30;100863.49;;;23.22;32.12
64614;BME280;51025;37.772;-122.432;2023-09-12T03:18:03;100860.88;;;23.08;32.23
64614;BME280;51025;37.772;-122.432;2023-09-12T03:20:31;100862.16;;;23.17;32.21
64614;BME280;51025;37.772;-122.432;2023-09-12T03:22:59;100861.77;;;23.08;32.30
64614;BME280;51025;37.772;-122.432;2023-09-12T03:25:27;100865.78;;;22.51;32.93
64614;BME280;51025;37.772;-122.432;2023-09-12T03:27:55;100865.98;;;23.59;32.23
64614;BME280;51025;37.772;-122.432;2023-09-12T03:30:23;100866.27;;;23.20;32.70
64614;BME280;51025;37.772;-122.432;2023-09-12T03:32:51;100868.10;;;23.24;32.59
64614;BME280;51025;37.772;-122.432;2023-09-12T03:35:20;100875.28;;;22.53;33.09
64614;BME280;51025;37.772;-122.432;2023-09-12T03:37:49;100872.32;;;23.12;32.59
64614;BME280;51025;37.772;-122.432;2023-09-12T03:40:23;100876.30;;;23.18;32.55
64614;BME280;51025;37.772;-122.432;2023-09-12T03:42:51;100874.75;;;22.85;32.89
64614;BME280;51025;37.772;-122.432;2023-09-12T03:45:19;100881.61;;;23.29;32.48
64614;BME280;51025;37.772;-122.432;2023-09-12T03:47:48;100882.23;;;22.80;33.04
64614;BME280;51025;37.772;-122.432;2023-09-12T03:50:16;100887.69;;;23.11;32.70
64614;BME280;51025;37.772;-122.432;2023-09-12T03:52:45;100887.31;;;23.14;32.75
64614;BME280;51025;37.772;-122.432;2023-09-12T03:55:13;100888.29;;;23.54;32.80
64614;BME280;51025;37.772;-122.432;2023-09-12T03:57:41;100896.18;;;22.98;32.99
64614;BME280;51025;37.772;-122.432;2023-09-12T04:00:11;100902.44;;;22.86;32.93
64614;BME280;51025;37.772;-122.432;2023-09-12T04:02:45;100901.14;;;23.03;32.78
64614;BME280;51025;37.772;-122.432;2023-09-12T04:05:14;100906.33;;;22.71;33.13
64614;BME280;51025;37.772;-122.432;2023-09-12T04:07:42;100903.31;;;23.24;32.56
64614;BME280;51025;37.772;-122.432;2023-09-12T04:10:10;100903.60;;;22.41;33.34
64614;BME280;51025;37.772;-122.432;2023-09-12T04:12:43;100911.98;;;22.88;33.22
64614;BME280;51025;37.772;-122.432;2023-09-12T04:15:11;100917.57;;;22.63;33.17
64614;BME280;51025;37.772;-122.432;2023-09-12T04:17:39;100924.36;;;22.32;33.46
64614;BME280;51025;37.772;-122.432;2023-09-12T04:20:08;100922.76;;;23.02;33.26
64614;BME280;51025;37.772;-122.432;2023-09-12T04:22:36;100927.62;;;22.96;33.10
64614;BME280;51025;37.772;-122.432;2023-09-12T04:25:05;100921.92;;;23.69;32.58
64614;BME280;51025;37.772;-122.432;2023-09-12T04:27:39;100923.67;;;22.34;33.33
64614;BME280;51025;37.772;-122.432;2023-09-12T04:30:08;100927.57;;;23.35;32.85
64614;BME280;51025;37.772;-122.432;2023-09-12T04:32:36;100923.62;;;22.93;33.15
64614;BME280;51025;37.772;-122.432;2023-09-12T04:35:05;100919.83;;;21.98;33.71
64614;BME280;51025;37.772;-122.432;2023-09-12T04:37:33;100924.39;;;23.25;32.78
64614;BME280;51025;37.772;-122.432;2023-09-12T04:40:04;100922.85;;;22.80;32.89
64614;BME280;51025;37.772;-122.432;2023-09-12T04:42:32;100932.03;;;23.05;32.59
64614;BME280;51025;37.772;-122.432;2023-09-12T04:45:00;100936.37;;;23.02;32.57
64614;BME280;51025;37.772;-122.432;2023-09-12T04:47:28;100932.36;;;22.50;32.99
64614;BME280;51025;37.772;-122.432;2023-09-12T04:49:56;100930.34;;;22.94;32.59
64614;BME280;51025;37.772;-122.432;2023-09-12T04:52:24;100927.42;;;22.92;32.59
64614;BME280;51025;37.772;-122.432;2023-09-12T04:54:52;100925.52;;;22.93;32.19
64614;BME280;51025;37.772;-122.432;2023-09-12T04:57:20;100923.88;;;23.20;32.15
64614;BME280;51025;37.772;-122.432;2023-09-12T04:59:49;100927.70;;;23.09;32.36
64614;BME280;51025;37.772;-122.432;2023-09-12T05:02:18;100933.20;;;22.44;32.91
64614;BME280;51025;37.772;-122.432;2023-09-12T05:04:47;100935.31;;;22.52;32.70
64614;BME280;51025;37.772;-122.432;2023-09-12T05:07:15;100935.60;;;22.96;32.62
64614;BME280;51025;37.772;-122.432;2023-09-12T05:09:43;100942.53;;;22.27;32.88
64614;BME280;51025;37.772;-122.432;2023-09-12T05:12:11;100941.11;;;22.72;32.51
64614;BME280;51025;37.772;-122.432;2023-09-12T05:14:39;100940.18;;;22.51;32.67
64614;BME280;51025;37.772;-122.432;2023-09-12T05:17:08;100940.48;;;23.01;32.24
64614;BME280;51025;37.772;-122.432;2023-09-12T05:19:36;100938.33;;;22.56;32.67
64614;BME280;51025;37.772;-122.432;2023-09-12T05:22:04;100932.90;;;22.91;32.25
64614;BME280;51025;37.772;-122.432;2023-09-12T05:24:33;100938.26;;;23.38;32.08
64614;BME280;51025;37.772;-122.432;2023-09-12T05:27:00;100934.61;;;23.15;32.01
64614;BME280;51025;37.772;-122.432;2023-09-12T05:29:28;100934.09;;;22.73;32.41
64614;BME280;51025;37.772;-122.432;2023-09-12T05:31:57;100933.78;;;22.75;32.35
64614;BME280;51025;37.772;-122.432;2023-09-12T05:34:25;100930.23;;;23.07;31.98
64614;BME280;51025;37.772;-122.432;2023-09-12T05:36:53;100926.70;;;22.99;32.31
64614;BME280;51025;37.772;-122.432;2023-09-12T05:39:21;100928.21;;;22.90;32.07
64614;BME280;51025;37.772;-122.432;2023-09-12T05:41:50;100926.18;;;22.72;32.21
64614;BME280;51025;37.772;-122.432;2023-09-12T05:44:18;100918.22;;;23.09;31.85
64614;BME280;51025;37.772;-122.432;2023-09-12T05:46:47;100923.56;;;22.92;32.28
64614;BME280;51025;37.772;-122.432;2023-09-12T05:49:15;100926.29;;;23.21;31.93
64614;BME280;51025;37.772;-122.432;2023-09-12T05:51:44;100928.31;;;23.43;31.76
64614;BME280;51025;37.772;-122.432;2023-09-12T05:54:12;100928.99;;;23.23;31.92
64614;BME280;51025;37.772;-122.432;2023-09-12T05:56:41;100928.61;;;23.36;31.73
64614;BME280;51025;37.772;-122.432;2023-09-12T05:59:08;100930.31;;;22.88;31.80
64614;BME280;51025;37.772;-122.432;2023-09-12T06:01:42;100931.59;;;23.66;31.67
64614;BME280;51025;37.772;-122.432;2023-09-12T06:04:12;100931.42;;;23.33;31.66
64614;BME280;51025;37.772;-122.432;2023-09-12T06:06:41;100934.49;;;23.05;31.86
64614;BME280;51025;37.772;-122.432;2023-09-12T06:09:11;100929.02;;;22.86;32.02
64614;BME280;51025;37.772;-122.432;2023-09-12T06:11:42;100933.74;;;23.04;31.50
64614;BME280;51025;37.772;-122.432;2023-09-12T06:14:09;100934.12;;;22.76;31.76
64614;BME280;51025;37.772;-122.432;2023-09-12T06:16:37;100935.45;;;22.84;31.94
64614;BME280;51025;37.772;-122.432;2023-09-12T06:19:05;100941.86;;;23.13;31.34
64614;BME280;51025;37.772;-122.432;2023-09-12T06:21:33;100944.88;;;23.20;31.53
64614;BME280;51025;37.772;-122.432;2023-09-12T06:24:10;100950.99;;;22.60;31.32
64614;BME280;51025;37.772;-122.432;2023-09-12T06:26:39;100950.54;;;23.85;31.26
64614;BME280;51025;37.772;-122.432;2023-09-12T06:29:08;100942.72;;;23.29;31.36
64614;BME280;51025;37.772;-122.432;2023-09-12T06:31:36;100947.15;;;23.16;31.44
64614;BME280;51025;37.772;-122.432;2023-09-12T06:34:05;100948.25;;;23.31;31.28
64614;BME280;51025;37.772;-122.432;2023-09-12T06:36:33;100947.84;;;22.98;31.16
64614;BME280;51025;37.772;-122.432;2023-09-12T06:39:02;100945.87;;;23.10;31.40
64614;BME280;51025;37.772;-122.432;2023-09-12T06:41:32;100949.33;;;22.64;31.39
64614;BME280;51025;37.772;-122.432;2023-09-12T06:44:00;100944.56;;;22.75;31.26
64614;BME280;51025;37.772;-122.432;2023-09-12T06:46:28;100943.83;;;22.31;31.58
64614;BME280;51025;37.772;-122.432;2023-09-12T06:48:57;100944.65;;;23.02;31.31
64614;BME280;51025;37.772;-122.432;2023-09-12T06:51:25;100942.42;;;22.78;31.55
64614;BME280;51025;37.772;-122.432;2023-09-12T06:53:53;100949.76;;;22.71;31.23
64614;BME280;51025;37.772;-122.432;2023-09-12T06:56:22;100942.98;;;23.05;31.21
64614;BME280;51025;37.772;-122.432;2023-09-12T06:58:50;100945.56;;;22.73;31.18
64614;BME280;51025;37.772;-122.432;2023-09-12T07:01:18;100947.33;;;22.90;31.28
64614;BME280;51025;37.772;-122.432;2023-09-12T07:03:48;100947.76;;;23.43;31.20
64614;BME280;51025;37.772;-122.432;2023-09-12T07:06:16;100944.72;;;22.72;31.10
64614;BME280;51025;37.772;-122.432;2023-09-12T07:08:44;100945.55;;;22.87;30.94
64614;BME280;51025;37.772;-122.432;2023-09-12T07:11:13;100948.71;;;23.07;31.07
64614;BME280;51025;37.772;-122.432;2023-09-12T07:13:41;100942.44;;;22.89;31.49
64614;BME280;51025;37.772;-122.432;2023-09-12T07:16:09;100948.22;;;22.28;31.44
64614;BME280;51025;37.772;-122.432;2023-09-12T07:18:37;100951.83;;;23.36;31.10
64614;BME280;51025;37.772;-122.432;2023-09-12T07:21:05;100954.60;;;22.73;31.25
64614;BME280;51025;37.772;-122.432;2023-09-12T07:23:34;100957.07;;;22.92;31.04
64614;BME280;51025;37.772;-122.432;2023-09-12T07:26:02;100957.79;;;22.63;31.34
64614;BME280;51025;37.772;-122.432;2023-09-12T07:28:31;100957.13;;;22.44;31.48
64614;BME280;51025;37.772;-122.432;2023-09-12T07:30:59;100957.81;;;23.33;31.08
64614;BME280;51025;37.772;-122.432;2023-09-12T07:33:27;100948.92;;;22.74;31.12
64614;BME280;51025;37.772;-122.432;2023-09-12T07:35:56;100948.89;;;22.58;30.96
64614;BME280;51025;37.772;-122.432;2023-09-12T07:38:24;100943.61;;;22.77;31.06
64614;BME280;51025;37.772;-122.432;2023-09-12T07:40:52;100946.03;;;21.35;31.28
64614;BME280;51025;37.772;-122.432;2023-09-12T07:43:21;100947.57;;;22.99;30.86
64614;BME280;51025;37.772;-122.432;2023-09-12T07:45:54;100945.51;;;22.09;31.30
64614;BME280;51025;37.772;-122.432;2023-09-12T07:48:23;100949.91;;;22.66;31.09
64614;BME280;51025;37.772;-122.432;2023-09-12T07:50:51;100952.81;;;22.69;30.76
64614;BME280;51025;37.772;-122.432;2023-09-12T07:53:19;100948.63;;;23.01;30.67
64614;BME280;51025;37.772;-122.432;2023-09-12T07:55:47;100950.66;;;23.02;30.70
64614;BME280;51025;37.772;-122.432;2023-09-12T07:58:17;100953.27;;;22.22;31.06
64614;BME280;51025;37.772;-122.432;2023-09-12T08:00:46;100950.68;;;22.99;30.70
64614;BME280;51025;37.772;-122.432;2023-09-12T08:03:15;100956.76;;;22.86;31.15
64614;BME280;51025;37.772;-122.432;2023-09-12T08:05:44;100953.53;;;22.88;30.70
64614;BME280;51025;37.772;-122.432;2023-09-12T08:08:22;100950.82;;;23.14;30.87
64614;BME280;51025;37.772;-122.432;2023-09-12T08:10:50;100950.44;;;21.92;31.49
64614;BME280;51025;37.772;-122.432;2023-09-12T08:13:18;100945.82;;;21.81;31.62
64614;BME280;51025;37.772;-122.432;2023-09-12T08:15:47;100944.26;;;23.13;30.83
64614;BME280;51025;37.772;-122.432;2023-09-12T08:18:15;100945.64;;;22.78;30.70
64614;BME280;51025;37.772;-122.432;2023-09-12T08:20:43;100947.84;;;22.29;31.17
64614;BME280;51025;37.772;-122.432;2023-09-12T08:23:11;100947.15;;;22.30;31.17
64614;BME280;51025;37.772;-122.432;2023-09-12T08:25:40;100946.03;;;22.76;30.73
64614;BME280;51025;37.772;-122.432;2023-09-12T08:28:09;100941.22;;;22.38;31.38
64614;BME280;51025;37.772;-122.432;2023-09-12T08:30:37;100944.23;;;23.09;30.80
64614;BME280;51025;37.772;-122.432;2023-09-12T08:33:05;100945.32;;;22.23;31.05
64614;BME280;51025;37.772;-122.432;2023-09-12T08:35:34;100947.71;;;22.72;31.09
64614;BME280;51025;37.772;-122.432;2023-09-12T08:38:03;100944.21;;;22.30;31.06
64614;BME280;51025;37.772;-122.432;2023-09-12T08:40:33;100946.95;;;22.54;31.26
64614;BME280;51025;37.772;-122.432;2023-09-12T08:43:02;100944.41;;;22.49;30.90
64614;BME280;51025;37.772;-122.432;2023-09-12T08:45:30;100943.03;;;23.02;30.72
64614;BME280;51025;37.772;-122.432;2023-09-12T08:48:00;100946.89;;;22.71;30.63
64614;BME280;51025;37.772;-122.432;2023-09-12T08:50:29;100942.53;;;22.70;30.56
64614;BME280;51025;37.772;-122.432;2023-09-12T08:52:57;100938.28;;;22.28;30.67
64614;BME280;51025;37.772;-122.432;2023-09-12T08:55:25;100939.20;;;22.14;31.00
64614;BME280;51025;37.772;-122.432;2023-09-12T08:57:56;100940.91;;;21.88;31.01
64614;BME280;51025;37.772;-122.432;2023-09-12T09:00:25;100938.31;;;22.22;31.03
64614;BME280;51025;37.772;-122.432;2023-09-12T09:02:53;100937.46;;;22.23;30.94
64614;BME280;51025;37.772;-122.432;2023-09-12T09:05:23;100931.91;;;22.05;31.54
64614;BME280;51025;37.772;-122.432;2023-09-12T09:07:52;100934.53;;;21.81;31.02
64614;BME280;51025;37.772;-122.432;2023-09-12T09:10:22;100933.90;;;21.93;31.22
64614;BME280;51025;37.772;-122.432;2023-09-12T09:12:51;100933.55;;;22.25;30.97
64614;BME280;51025;37.772;-122.432;2023-09-12T09:15:24;100928.33;;;22.12;30.98
64614;BME280;51025;37.772;-122.432;2023-09-12T09:17:54;100932.26;;;21.16;31.57
64614;BME280;51025;37.772;-122.432;2023-09-12T09:20:26;100932.10;;;22.39;31.17
64614;BME280;51025;37.772;-122.432;2023-09-12T09:22:59;100925.70;;;21.89;31.23
64614;BME280;51025;37.772;-122.432;2023-09-12T09:25:28;100929.33;;;22.21;31.36
64614;BME280;51025;37.772;-122.432;2023-09-12T09:27:56;100926.87;;;21.94;31.20
64614;BME280;51025;37.772;-122.432;2023-09-12T09:30:43;100931.21;;;21.96;31.09
64614;BME280;51025;37.772;-122.432;2023-09-12T09:33:12;100934.24;;;22.63;30.93
64614;BME280;51025;37.772;-122.432;2023-09-12T09:35:42;100934.97;;;21.79;31.27
64614;BME280;51025;37.772;-122.432;2023-09-12T09:38:11;100935.47;;;22.30;31.19
64614;BME280;51025;37.772;-122.432;2023-09-12T09:40:40;100934.64;;;22.04;31.05
64614;BME280;51025;37.772;-122.432;2023-09-12T09:43:08;100932.41;;;22.05;31.44
64614;BME280;51025;37.772;-122.432;2023-09-12T09:45:44;100931.10;;;21.60;31.43
64614;BME280;51025;37.772;-122.432;2023-09-12T09:48:19;100930.40;;;22.11;31.30
64614;BME280;51025;37.772;-122.432;2023-09-12T09:50:49;100925.35;;;21.52;31.46
64614;BME280;51025;37.772;-122.432;2023-09-12T09:53:17;100923.81;;;21.81;31.50
64614;BME280;51025;37.772;-122.432;2023-09-12T09:55:50;100924.10;;;22.01;30.97
64614;BME280;51025;37.772;-122.432;2023-09-12T09:58:17;100919.47;;;21.54;31.69
64614;BME280;51025;37.772;-122.432;2023-09-12T10:00:47;100921.12;;;22.96;30.80
64614;BME280;51025;37.772;-122.432;2023-09-12T10:03:18;100921.58;;;21.77;31.48
64614;BME280;51025;37.772;-122.432;2023-09-12T10:05:48;100921.03;;;22.53;30.87
64614;BME280;51025;37.772;-122.432;2023-09-12T10:08:19;100917.29;;;21.39;31.40
64614;BME280;51025;37.772;-122.432;2023-09-12T10:10:49;100920.96;;;21.08;31.76
64614;BME280;51025;37.772;-122.432;2023-09-12T10:13:19;100921.14;;;21.45;31.74
64614;BME280;51025;37.772;-122.432;2023-09-12T10:15:50;100922.70;;;22.05;31.25
64614;BME280;51025;37.772;-122.432;2023-09-12T10:18:23;100927.31;;;21.62;31.63
64614;BME280;51025;37.772;-122.432;2023-09-12T10:20:57;100917.83;;;21.51;31.31
64614;BME280;51025;37.772;-122.432;2023-09-12T10:23:33;100920.66;;;21.22;31.94
64614;BME280;51025;37.772;-122.432;2023-09-12T10:26:03;100916.58;;;21.26;31.46
64614;BME280;51025;37.772;-122.432;2023-09-12T10:28:32;100918.00;;;22.30;31.17
64614;BME280;51025;37.772;-122.432;2023-09-12T10:31:02;100915.81;;;21.97;31.12
64614;BME280;51025;37.772;-122.432;2023-09-12T10:33:32;100913.63;;;21.86;31.26
64614;BME280;51025;37.772;-122.432;2023-09-12T10:36:00;100913.83;;;21.56;31.54
64614;BME280;51025;37.772;-122.432;2023-09-12T10:38:33;100916.80;;;21.22;31.94
64614;BME280;51025;37.772;-122.432;2023-09-12T10:41:05;100914.88;;;21.72;31.38
64614;BME280;51025;37.772;-122.432;2023-09-12T10:43:36;100913.84;;;22.13;30.94
64614;BME280;51025;37.772;-122.432;2023-09-12T10:46:05;100912.90;;;21.96;31.13
64614;BME280;51025;37.772;-122.432;2023-09-12T10:48:35;100914.83;;;20.78;31.88
64614;BME280;51025;37.772;-122.432;2023-09-12T10:51:04;100909.22;;;21.49;31.46
64614;BME280;51025;37.772;-122.432;2023-09-12T10:53:32;100911.23;;;20.81;31.86
64614;BME280;51025;37.772;-122.432;2023-09-12T10:56:01;100910.63;;;20.82;31.87
64614;BME280;51025;37.772;-122.432;2023-09-12T10:59:10;100909.10;;;21.03;32.01
64614;BME280;51025;37.772;-122.432;2023-09-12T11:01:39;100912.70;;;21.16;31.89
64614;BME280;51025;37.772;-122.432;2023-09-12T11:04:32;100914.48;;;20.86;31.76
64614;BME280;51025;37.772;-122.432;2023-09-12T11:07:02;100913.10;;;21.09;31.99
64614;BME280;51025;37.772;-122.432;2023-09-12T11:10:20;100912.82;;;21.33;31.70
64614;BME280;51025;37.772;-122.432;2023-09-12T11:12:50;100910.65;;;21.10;31.93
64614;BME280;51025;37.772;-122.432;2023-09-12T11:15:20;100909.24;;;21.12;31.96
64614;BME280;51025;37.772;-122.432;2023-09-12T11:17:59;100906.94;;;21.54;31.45
64614;BME280;51025;37.772;-122.432;2023-09-12T11:20:50;100907.21;;;21.36;31.62
64614;BME280;51025;37.772;-122.432;2023-09-12T11:23:19;100908.19;;;21.10;31.93
64614;BME280;51025;37.772;-122.432;2023-09-12T11:25:48;100909.37;;;20.88;31.75
64614;BME280;51025;37.772;-122.432;2023-09-12T11:28:16;100912.44;;;21.26;31.83
64614;BME280;51025;37.772;-122.432;2023-09-12T11:31:02;100905.86;;;21.52;31.51
64614;BME280;51025;37.772;-122.432;2023-09-12T11:33:32;100906.95;;;21.23;31.84
64614;BME280;51025;37.772;-122.432;2023-09-12T11:36:02;100904.67;;;21.32;31.66
64614;BME280;51025;37.772;-122.432;2023-09-12T11:38:31;100904.66;;;20.95;31.64
64614;BME280;51025;37.772;-122.432;2023-09-12T11:41:00;100903.69;;;21.43;31.94
64614;BME280;51025;37.772;-122.432;2023-09-12T11:43:29;100901.56;;;21.35;31.59
64614;BME280;51025;37.772;-122.432;2023-09-12T11:45:57;100900.25;;;21.43;31.61
64614;BME280;51025;37.772;-122.432;2023-09-12T11:48:29;100900.56;;;20.96;32.07
64614;BME280;51025;37.772;-122.432;2023-09-12T11:50:57;100896.08;;;21.00;31.94
64614;BME280;51025;37.772;-122.432;2023-09-12T11:53:27;100892.21;;;20.85;32.08
64614;BME280;51025;37.772;-122.432;2023-09-12T11:55:59;100888.32;;;20.84;32.12
64614;BME280;51025;37.772;-122.432;2023-09-12T11:58:28;100889.07;;;20.78;32.20
64614;BME280;51025;37.772;-122.432;2023-09-12T12:00:57;100889.51;;;20.78;32.21
64614;BME280;51025;37.772;-122.432;2023-09-12T12:03:27;100888.44;;;20.74;32.26
64614;BME280;51025;37.772;-122.432;2023-09-12T12:05:56;100886.72;;;20.90;32.06
64614;BME280;51025;37.772;-122.432;2023-09-12T12:08:26;100885.69;;;21.00;31.94
64614;BME280;51025;37.772;-122.432;2023-09-12T12:10:54;100882.78;;;21.06;31.85
64614;BME280;51025;37.772;-122.432;2023-09-12T12:13:25;100883.07;;;20.97;31.96
64614;BME280;51025;37.772;-122.432;2023-09-12T12:15:53;100884.01;;;21.04;31.45
64614;BME280;51025;37.772;-122.432;2023-09-12T12:18:21;100883.88;;;21.07;31.83
64614;BME280;51025;37.772;-122.432;2023-09-12T12:20:50;100882.42;;;21.36;31.59
64614;BME280;51025;37.772;-122.432;2023-09-12T12:23:18;100886.84;;;20.81;32.06
64614;BME280;51025;37.772;-122.432;2023-09-12T12:25:46;100880.86;;;21.29;31.96
64614;BME280;51025;37.772;-122.432;2023-09-12T12:28:16;100878.33;;;21.48;31.39
64614;BME280;51025;37.772;-122.432;2023-09-12T12:30:44;100883.01;;;21.13;31.77
64614;BME280;51025;37.772;-122.432;2023-09-12T12:33:12;100884.35;;;20.89;31.96
64614;BME280;51025;37.772;-122.432;2023-09-12T12:35:40;100887.76;;;21.07;32.15